sensor_id;sensor_type;location;lat;lon;timestamp;temperature;humidity
52044;DHT22;38053;53.100;6.078;2023-02-13T00:00:41;6.30;99.90
52044;DHT22;38053;53.100;6.078;2023-02-13T00:03:07;6.30;99.90
52044;DHT22;38053;53.100;6.078;2023-02-13T00:05:33;6.30;99.90
52044;DHT22;38053;53.100;6.078;2023-02-13T00:07:58;6.20;99.90
52044;DHT22;38053;53.100;6.078;2023-02-13T00:10:24;6.20;99.90
52044;DHT22;38053;53.100;6.078;2023-02-13T00:12:50;6.20;99.90
52044;DHT22;38053;53.100;6.078;2023-02-13T00:15:16;6.20;99.90
52044;DHT22;38053;53.100;6.078;2023-02-13T00:17:41;6.20;99.90
52044;DHT22;38053;53.100;6.078;2023-02-13T00:20:08;6.30;99.90
52044;DHT22;38053;53.100;6.078;2023-02-13T00:22:36;6.20;99.90
52044;DHT22;38053;53.100;6.078;2023-02-13T00:25:06;6.30;99.90
52044;DHT22;38053;53.100;6.078;2023-02-13T00:27:32;6.30;99.90
52044;DHT22;38053;53.100;6.078;2023-02-13T00:29:58;6.30;99.90
52044;DHT22;38053;53.100;6.078;2023-02-13T00:32:26;6.30;99.90
52044;DHT22;38053;53.100;6.078;2023-02-13T00:34:54;6.20;99.90
52044;DHT22;38053;53.100;6.078;2023-02-13T00:37:21;6.20;99.90
52044;DHT22;38053;53.100;6.078;2023-02-13T00:39:46;6.20;99.90
52044;DHT22;38053;53.100;6.078;2023-02-13T00:42:12;6.20;99.90
52044;DHT22;38053;53.100;6.078;2023-02-13T00:44:37;6.20;99.90
52044;DHT22;38053;53.100;6.078;2023-02-13T00:47:03;6.20;99.90
52044;DHT22;38053;53.100;6.078;2023-02-13T00:49:32;6.20;99.90
52044;DHT22;38053;53.100;6.078;2023-02-13T00:51:58;6.20;99.90
52044;DHT22;38053;53.100;6.078;2023-02-13T00:54:23;6.20;99.90
52044;DHT22;38053;53.100;6.078;2023-02-13T00:56:49;6.20;99.90
52044;DHT22;38053;53.100;6.078;2023-02-13T00:59:15;6.20;99.90
52044;DHT22;38053;53.100;6.078;2023-02-13T01:01:42;6.20;99.90
52044;DHT22;38053;53.100;6.078;2023-02-13T01:04:07;6.20;99.90
52044;DHT22;38053;53.100;6.078;2023-02-13T01:06:33;6.10;99.90
52044;DHT22;38053;53.100;6.078;2023-02-13T01:08:59;6.20;99.90
52044;DHT22;38053;53.100;6.078;2023-02-13T01:11:25;6.20;99.90
52044;DHT22;38053;53.100;6.078;2023-02-13T01:13:51;6.10;99.90
52044;DHT22;38053;53.100;6.078;2023-02-13T01:16:17;6.10;99.90
52044;DHT22;38053;53.100;6.078;2023-02-13T01:18:43;6.10;99.90
52044;DHT22;38053;53.100;6.078;2023-02-13T01:21:15;6.10;99.90
52044;DHT22;38053;53.100;6.078;2023-02-13T01:23:43;6.10;99.90
52044;DHT22;38053;53.100;6.078;2023-02-13T01:26:12;6.10;99.90
52044;DHT22;38053;53.100;6.078;2023-02-13T01:28:39;6.10;99.90
52044;DHT22;38053;53.100;6.078;2023-02-13T01:31:05;6.10;99.90
52044;DHT22;38053;53.100;6.078;2023-02-13T01:33:30;6.10;99.90
52044;DHT22;38053;53.100;6.078;2023-02-13T01:35:58;6.10;99.90
52044;DHT22;38053;53.100;6.078;2023-02-13T01:38:24;6.10;99.90
52044;DHT22;38053;53.100;6.078;2023-02-13T01:40:52;6.10;99.90
52044;DHT22;38053;53.100;6.078;2023-02-13T01:43:18;6.10;99.90
52044;DHT22;38053;53.100;6.078;2023-02-13T01:45:47;6.10;99.90
52044;DHT22;38053;53.100;6.078;2023-02-13T01:48:33;6.10;99.90
52044;DHT22;38053;53.100;6.078;2023-02-13T01:51:14;6.10;99.90
52044;DHT22;38053;53.100;6.078;2023-02-13T01:54:01;6.10;99.90
52044;DHT22;38053;53.100;6.078;2023-02-13T01:56:36;6.10;99.90
52044;DHT22;38053;53.100;6.078;2023-02-13T01:59:09;6.10;99.90
52044;DHT22;38053;53.100;6.078;2023-02-13T02:01:36;6.10;99.90
52044;DHT22;38053;53.100;6.078;2023-02-13T02:04:16;6.10;99.90
52044;DHT22;38053;53.100;6.078;2023-02-13T02:06:50;6.10;99.90
52044;DHT22;38053;53.100;6.078;2023-02-13T02:09:22;6.10;99.90
52044;DHT22;38053;53.100;6.078;2023-02-13T02:14:54;6.10;99.90
52044;DHT22;38053;53.100;6.078;2023-02-13T02:17:24;6.10;99.90
52044;DHT22;38053;53.100;6.078;2023-02-13T02:22:26;6.10;99.90
52044;DHT22;38053;53.100;6.078;2023-02-13T02:25:23;6.10;99.90
52044;DHT22;38053;53.100;6.078;2023-02-13T02:30:58;6.10;99.90
52044;DHT22;38053;53.100;6.078;2023-02-13T02:34:03;6.10;99.90
52044;DHT22;38053;53.100;6.078;2023-02-13T02:39:03;6.10;99.90
52044;DHT22;38053;53.100;6.078;2023-02-13T02:44:16;6.10;99.90
52044;DHT22;38053;53.100;6.078;2023-02-13T02:47:19;6.10;99.90
52044;DHT22;38053;53.100;6.078;2023-02-13T02:50:25;6.10;99.90
52044;DHT22;38053;53.100;6.078;2023-02-13T02:55:51;6.10;99.90
52044;DHT22;38053;53.100;6.078;2023-02-13T02:58:56;6.10;99.90
52044;DHT22;38053;53.100;6.078;2023-02-13T03:01:43;6.10;99.90
52044;DHT22;38053;53.100;6.078;2023-02-13T03:04:50;6.10;99.90
52044;DHT22;38053;53.100;6.078;2023-02-13T03:07:35;6.10;99.90
52044;DHT22;38053;53.100;6.078;2023-02-13T03:10:05;6.10;99.90
52044;DHT22;38053;53.100;6.078;2023-02-13T03:13:13;6.10;99.90
52044;DHT22;38053;53.100;6.078;2023-02-13T03:15:51;6.10;99.90
52044;DHT22;38053;53.100;6.078;2023-02-13T03:18:39;6.10;99.90
52044;DHT22;38053;53.100;6.078;2023-02-13T03:21:48;6.10;99.90
52044;DHT22;38053;53.100;6.078;2023-02-13T03:30:40;6.10;99.90
52044;DHT22;38053;53.100;6.078;2023-02-13T03:33:30;6.10;99.90
52044;DHT22;38053;53.100;6.078;2023-02-13T03:36:03;6.10;99.90
52044;DHT22;38053;53.100;6.078;2023-02-13T03:41:32;6.10;99.90
52044;DHT22;38053;53.100;6.078;2023-02-13T03:44:17;6.10;99.90
52044;DHT22;38053;53.100;6.078;2023-02-13T03:46:50;6.10;99.90
52044;DHT22;38053;53.100;6.078;2023-02-13T03:49:49;6.10;99.90
52044;DHT22;38053;53.100;6.078;2023-02-13T03:52:50;6.10;99.90
52044;DHT22;38053;53.100;6.078;2023-02-13T03:55:19;6.10;99.90
52044;DHT22;38053;53.100;6.078;2023-02-13T03:58:10;6.10;99.90
52044;DHT22;38053;53.100;6.078;2023-02-13T04:01:00;6.10;99.90
52044;DHT22;38053;53.100;6.078;2023-02-13T04:03:37;6.10;99.90
52044;DHT22;38053;53.100;6.078;2023-02-13T04:06:10;6.10;99.90
52044;DHT22;38053;53.100;6.078;2023-02-13T04:08:37;6.10;99.90
52044;DHT22;38053;53.100;6.078;2023-02-13T04:11:36;6.10;99.90
52044;DHT22;38053;53.100;6.078;2023-02-13T04:14:07;6.10;99.90
52044;DHT22;38053;53.100;6.078;2023-02-13T04:16:40;6.10;99.90
52044;DHT22;38053;53.100;6.078;2023-02-13T04:19:07;6.10;99.90
52044;DHT22;38053;53.100;6.078;2023-02-13T04:21:38;6.10;99.90
52044;DHT22;38053;53.100;6.078;2023-02-13T04:24:10;6.10;99.90
52044;DHT22;38053;53.100;6.078;2023-02-13T04:26:46;6.10;99.90
52044;DHT22;38053;53.100;6.078;2023-02-13T04:29:23;6.10;99.90
52044;DHT22;38053;53.100;6.078;2023-02-13T04:31:50;6.10;99.90
52044;DHT22;38053;53.100;6.078;2023-02-13T04:34:17;6.10;99.90
52044;DHT22;38053;53.100;6.078;2023-02-13T04:36:43;6.10;99.90
52044;DHT22;38053;53.100;6.078;2023-02-13T04:39:10;6.00;99.90
52044;DHT22;38053;53.100;6.078;2023-02-13T04:41:36;6.00;99.90
52044;DHT22;38053;53.100;6.078;2023-02-13T04:44:02;6.00;99.90
52044;DHT22;38053;53.100;6.078;2023-02-13T04:46:28;6.00;99.90
52044;DHT22;38053;53.100;6.078;2023-02-13T04:48:55;6.00;99.90
52044;DHT22;38053;53.100;6.078;2023-02-13T04:51:20;6.00;99.90
52044;DHT22;38053;53.100;6.078;2023-02-13T04:53:46;6.00;99.90
52044;DHT22;38053;53.100;6.078;2023-02-13T04:56:12;6.00;99.90
52044;DHT22;38053;53.100;6.078;2023-02-13T04:58:42;6.00;99.90
52044;DHT22;38053;53.100;6.078;2023-02-13T05:01:15;6.00;99.90
52044;DHT22;38053;53.100;6.078;2023-02-13T05:03:44;6.00;99.90
52044;DHT22;38053;53.100;6.078;2023-02-13T05:06:10;6.00;99.90
52044;DHT22;38053;53.100;6.078;2023-02-13T05:08:36;6.00;99.90
52044;DHT22;38053;53.100;6.078;2023-02-13T05:11:02;6.00;99.90
52044;DHT22;38053;53.100;6.078;2023-02-13T05:13:31;6.00;99.90
52044;DHT22;38053;53.100;6.078;2023-02-13T05:16:00;6.00;99.90
52044;DHT22;38053;53.100;6.078;2023-02-13T05:18:29;6.00;99.90
52044;DHT22;38053;53.100;6.078;2023-02-13T05:20:55;5.90;99.90
52044;DHT22;38053;53.100;6.078;2023-02-13T05:23:40;5.90;99.90
52044;DHT22;38053;53.100;6.078;2023-02-13T05:26:06;5.90;99.90
52044;DHT22;38053;53.100;6.078;2023-02-13T05:28:32;5.90;99.90
52044;DHT22;38053;53.100;6.078;2023-02-13T05:31:16;5.90;99.90
52044;DHT22;38053;53.100;6.078;2023-02-13T05:33:42;5.90;99.90
52044;DHT22;38053;53.100;6.078;2023-02-13T05:36:08;5.90;99.90
52044;DHT22;38053;53.100;6.078;2023-02-13T05:38:34;5.90;99.90
52044;DHT22;38053;53.100;6.078;2023-02-13T05:41:00;5.90;99.90
52044;DHT22;38053;53.100;6.078;2023-02-13T05:43:30;5.90;99.90
52044;DHT22;38053;53.100;6.078;2023-02-13T05:46:04;5.90;99.90
52044;DHT22;38053;53.100;6.078;2023-02-13T05:48:33;5.90;99.90
52044;DHT22;38053;53.100;6.078;2023-02-13T05:51:00;5.90;99.90
52044;DHT22;38053;53.100;6.078;2023-02-13T05:53:26;5.90;99.90
52044;DHT22;38053;53.100;6.078;2023-02-13T05:55:54;5.90;99.90
52044;DHT22;38053;53.100;6.078;2023-02-13T05:58:20;5.90;99.90
52044;DHT22;38053;53.100;6.078;2023-02-13T06:00:46;5.90;99.90
52044;DHT22;38053;53.100;6.078;2023-02-13T06:03:13;5.90;99.90
52044;DHT22;38053;53.100;6.078;2023-02-13T06:05:38;5.90;99.90
52044;DHT22;38053;53.100;6.078;2023-02-13T06:08:04;5.90;99.90
52044;DHT22;38053;53.100;6.078;2023-02-13T06:10:30;5.90;99.90
52044;DHT22;38053;53.100;6.078;2023-02-13T06:12:55;5.90;99.90
52044;DHT22;38053;53.100;6.078;2023-02-13T06:15:22;5.90;99.90
52044;DHT22;38053;53.100;6.078;2023-02-13T06:17:47;5.90;99.90
52044;DHT22;38053;53.100;6.078;2023-02-13T06:20:13;5.90;99.90
52044;DHT22;38053;53.100;6.078;2023-02-13T06:22:39;5.90;99.90
52044;DHT22;38053;53.100;6.078;2023-02-13T06:25:05;5.90;99.90
52044;DHT22;38053;53.100;6.078;2023-02-13T06:27:30;5.90;99.90
52044;DHT22;38053;53.100;6.078;2023-02-13T06:29:56;5.90;99.90
52044;DHT22;38053;53.100;6.078;2023-02-13T06:32:25;5.90;99.90
52044;DHT22;38053;53.100;6.078;2023-02-13T06:34:51;5.90;99.90
52044;DHT22;38053;53.100;6.078;2023-02-13T06:37:18;5.90;99.90
52044;DHT22;38053;53.100;6.078;2023-02-13T06:39:43;5.90;99.90
52044;DHT22;38053;53.100;6.078;2023-02-13T06:42:09;5.90;99.90
52044;DHT22;38053;53.100;6.078;2023-02-13T06:44:35;5.90;99.90
52044;DHT22;38053;53.100;6.078;2023-02-13T06:47:01;5.90;99.90
52044;DHT22;38053;53.100;6.078;2023-02-13T06:49:26;5.90;99.90
52044;DHT22;38053;53.100;6.078;2023-02-13T06:51:52;5.90;99.90
52044;DHT22;38053;53.100;6.078;2023-02-13T06:54:18;5.90;99.90
52044;DHT22;38053;53.100;6.078;2023-02-13T06:56:44;5.90;99.90
52044;DHT22;38053;53.100;6.078;2023-02-13T06:59:10;5.90;99.90
52044;DHT22;38053;53.100;6.078;2023-02-13T07:01:35;5.90;99.90
52044;DHT22;38053;53.100;6.078;2023-02-13T07:04:01;5.90;99.90
52044;DHT22;38053;53.100;6.078;2023-02-13T07:06:27;5.90;99.90
52044;DHT22;38053;53.100;6.078;2023-02-13T07:08:53;5.90;99.90
52044;DHT22;38053;53.100;6.078;2023-02-13T07:11:22;5.80;99.90
52044;DHT22;38053;53.100;6.078;2023-02-13T07:13:49;5.90;99.90
52044;DHT22;38053;53.100;6.078;2023-02-13T07:16:18;5.90;99.90
52044;DHT22;38053;53.100;6.078;2023-02-13T07:18:46;5.90;99.90
52044;DHT22;38053;53.100;6.078;2023-02-13T07:21:12;5.90;99.90
52044;DHT22;38053;53.100;6.078;2023-02-13T07:23:38;5.90;99.90
52044;DHT22;38053;53.100;6.078;2023-02-13T07:26:04;5.90;99.90
52044;DHT22;38053;53.100;6.078;2023-02-13T07:28:30;5.90;99.90
52044;DHT22;38053;53.100;6.078;2023-02-13T07:30:56;6.00;99.90
52044;DHT22;38053;53.100;6.078;2023-02-13T07:33:22;6.00;99.90
52044;DHT22;38053;53.100;6.078;2023-02-13T07:35:49;6.00;99.90
52044;DHT22;38053;53.100;6.078;2023-02-13T07:38:16;6.00;99.90
52044;DHT22;38053;53.100;6.078;2023-02-13T07:40:42;6.00;99.90
52044;DHT22;38053;53.100;6.078;2023-02-13T07:43:08;6.10;99.90
52044;DHT22;38053;53.100;6.078;2023-02-13T07:45:33;6.10;99.90
52044;DHT22;38053;53.100;6.078;2023-02-13T07:47:59;6.10;99.90
52044;DHT22;38053;53.100;6.078;2023-02-13T07:50:29;6.10;99.90
52044;DHT22;38053;53.100;6.078;2023-02-13T07:52:55;6.10;99.90
52044;DHT22;38053;53.100;6.078;2023-02-13T07:55:21;6.10;99.90
52044;DHT22;38053;53.100;6.078;2023-02-13T07:57:47;6.20;99.90
52044;DHT22;38053;53.100;6.078;2023-02-13T08:00:17;6.20;99.90
52044;DHT22;38053;53.100;6.078;2023-02-13T08:02:46;6.20;99.90
52044;DHT22;38053;53.100;6.078;2023-02-13T08:05:12;6.20;99.90
52044;DHT22;38053;53.100;6.078;2023-02-13T08:07:37;6.20;99.90
52044;DHT22;38053;53.100;6.078;2023-02-13T08:10:06;6.20;99.90
52044;DHT22;38053;53.100;6.078;2023-02-13T08:12:51;6.30;99.90
52044;DHT22;38053;53.100;6.078;2023-02-13T08:15:17;6.30;99.90
52044;DHT22;38053;53.100;6.078;2023-02-13T08:17:43;6.30;99.90
52044;DHT22;38053;53.100;6.078;2023-02-13T08:20:09;6.30;99.90
52044;DHT22;38053;53.100;6.078;2023-02-13T08:22:36;6.30;99.90
52044;DHT22;38053;53.100;6.078;2023-02-13T08:25:03;6.30;99.90
52044;DHT22;38053;53.100;6.078;2023-02-13T08:27:29;6.30;99.90
52044;DHT22;38053;53.100;6.078;2023-02-13T08:29:56;6.30;99.90
52044;DHT22;38053;53.100;6.078;2023-02-13T08:32:22;6.30;99.90
52044;DHT22;38053;53.100;6.078;2023-02-13T08:34:48;6.30;99.90
52044;DHT22;38053;53.100;6.078;2023-02-13T08:37:14;6.30;99.90
52044;DHT22;38053;53.100;6.078;2023-02-13T08:39:39;6.40;99.90
52044;DHT22;38053;53.100;6.078;2023-02-13T08:42:05;6.40;99.90
52044;DHT22;38053;53.100;6.078;2023-02-13T08:44:31;6.40;99.90
52044;DHT22;38053;53.100;6.078;2023-02-13T08:46:57;6.40;99.90
52044;DHT22;38053;53.100;6.078;2023-02-13T08:49:23;6.40;99.90
52044;DHT22;38053;53.100;6.078;2023-02-13T08:51:49;6.40;99.90
52044;DHT22;38053;53.100;6.078;2023-02-13T08:54:15;6.40;99.90
52044;DHT22;38053;53.100;6.078;2023-02-13T08:56:41;6.40;99.90
52044;DHT22;38053;53.100;6.078;2023-02-13T08:59:07;6.40;99.90
52044;DHT22;38053;53.100;6.078;2023-02-13T09:01:33;6.40;99.90
52044;DHT22;38053;53.100;6.078;2023-02-13T09:03:59;6.40;99.90
52044;DHT22;38053;53.100;6.078;2023-02-13T09:06:25;6.40;99.90
52044;DHT22;38053;53.100;6.078;2023-02-13T09:08:52;6.50;99.90
52044;DHT22;38053;53.100;6.078;2023-02-13T09:11:18;6.50;99.90
52044;DHT22;38053;53.100;6.078;2023-02-13T09:13:47;6.50;99.90
52044;DHT22;38053;53.100;6.078;2023-02-13T09:16:13;6.50;99.90
52044;DHT22;38053;53.100;6.078;2023-02-13T09:18:38;6.50;99.90
52044;DHT22;38053;53.100;6.078;2023-02-13T09:21:07;6.60;99.90
52044;DHT22;38053;53.100;6.078;2023-02-13T09:23:36;6.60;99.90
52044;DHT22;38053;53.100;6.078;2023-02-13T09:26:03;6.60;99.90
52044;DHT22;38053;53.100;6.078;2023-02-13T09:28:30;6.60;99.90
52044;DHT22;38053;53.100;6.078;2023-02-13T09:30:56;6.60;99.90
52044;DHT22;38053;53.100;6.078;2023-02-13T09:33:27;6.70;99.90
52044;DHT22;38053;53.100;6.078;2023-02-13T09:35:53;6.70;99.90
52044;DHT22;38053;53.100;6.078;2023-02-13T09:38:20;6.70;99.90
52044;DHT22;38053;53.100;6.078;2023-02-13T09:40:50;6.70;99.90
52044;DHT22;38053;53.100;6.078;2023-02-13T09:45:57;6.70;99.90
52044;DHT22;38053;53.100;6.078;2023-02-13T09:48:28;6.70;99.90
52044;DHT22;38053;53.100;6.078;2023-02-13T09:50:55;6.70;99.90
52044;DHT22;38053;53.100;6.078;2023-02-13T09:53:23;6.80;99.90
52044;DHT22;38053;53.100;6.078;2023-02-13T09:59:02;6.80;99.90
52044;DHT22;38053;53.100;6.078;2023-02-13T10:01:33;6.80;99.90
52044;DHT22;38053;53.100;6.078;2023-02-13T10:06:44;6.90;99.90
52044;DHT22;38053;53.100;6.078;2023-02-13T10:09:51;6.90;99.90
52044;DHT22;38053;53.100;6.078;2023-02-13T10:12:34;7.00;99.90
52044;DHT22;38053;53.100;6.078;2023-02-13T10:15:20;7.00;99.90
52044;DHT22;38053;53.100;6.078;2023-02-13T10:18:00;7.10;99.90
52044;DHT22;38053;53.100;6.078;2023-02-13T10:20:55;7.10;99.90
52044;DHT22;38053;53.100;6.078;2023-02-13T10:23:46;7.10;99.90
52044;DHT22;38053;53.100;6.078;2023-02-13T10:26:22;7.10;99.90
52044;DHT22;38053;53.100;6.078;2023-02-13T10:28:59;7.20;99.90
52044;DHT22;38053;53.100;6.078;2023-02-13T10:31:48;7.20;99.90
52044;DHT22;38053;53.100;6.078;2023-02-13T10:34:16;7.20;99.90
52044;DHT22;38053;53.100;6.078;2023-02-13T10:36:48;7.30;99.90
52044;DHT22;38053;53.100;6.078;2023-02-13T10:39:24;7.30;99.90
52044;DHT22;38053;53.100;6.078;2023-02-13T10:41:53;7.30;99.90
52044;DHT22;38053;53.100;6.078;2023-02-13T10:58:31;7.50;99.90
52044;DHT22;38053;53.100;6.078;2023-02-13T11:03:27;7.60;99.90
52044;DHT22;38053;53.100;6.078;2023-02-13T11:05:54;7.60;99.90
52044;DHT22;38053;53.100;6.078;2023-02-13T11:08:32;7.60;99.90
52044;DHT22;38053;53.100;6.078;2023-02-13T11:10:58;7.70;99.90
52044;DHT22;38053;53.100;6.078;2023-02-13T11:13:26;7.70;99.90
52044;DHT22;38053;53.100;6.078;2023-02-13T11:16:04;7.80;99.90
52044;DHT22;38053;53.100;6.078;2023-02-13T11:18:33;7.80;99.90
52044;DHT22;38053;53.100;6.078;2023-02-13T11:21:02;7.90;99.90
52044;DHT22;38053;53.100;6.078;2023-02-13T11:23:53;7.90;99.90
52044;DHT22;38053;53.100;6.078;2023-02-13T11:26:34;7.90;99.90
52044;DHT22;38053;53.100;6.078;2023-02-13T11:29:05;8.00;99.90
52044;DHT22;38053;53.100;6.078;2023-02-13T11:31:40;8.10;99.90
52044;DHT22;38053;53.100;6.078;2023-02-13T11:34:25;8.00;99.90
52044;DHT22;38053;53.100;6.078;2023-02-13T11:36:54;8.10;99.90
52044;DHT22;38053;53.100;6.078;2023-02-13T11:39:31;8.10;99.90
52044;DHT22;38053;53.100;6.078;2023-02-13T11:41:57;8.20;99.90
52044;DHT22;38053;53.100;6.078;2023-02-13T11:44:31;8.20;99.90
52044;DHT22;38053;53.100;6.078;2023-02-13T11:46:59;8.20;99.90
52044;DHT22;38053;53.100;6.078;2023-02-13T11:49:30;8.20;99.90
52044;DHT22;38053;53.100;6.078;2023-02-13T11:52:06;8.30;99.90
52044;DHT22;38053;53.100;6.078;2023-02-13T11:54:41;8.30;99.90
52044;DHT22;38053;53.100;6.078;2023-02-13T11:57:24;8.40;99.90
52044;DHT22;38053;53.100;6.078;2023-02-13T11:59:53;8.50;99.90
52044;DHT22;38053;53.100;6.078;2023-02-13T12:05:23;8.50;99.90
52044;DHT22;38053;53.100;6.078;2023-02-13T12:07:49;8.60;99.90
52044;DHT22;38053;53.100;6.078;2023-02-13T12:10:21;8.60;99.90
52044;DHT22;38053;53.100;6.078;2023-02-13T12:13:13;8.70;99.90
52044;DHT22;38053;53.100;6.078;2023-02-13T12:15:40;8.80;99.90
52044;DHT22;38053;53.100;6.078;2023-02-13T12:20:57;8.90;99.90
52044;DHT22;38053;53.100;6.078;2023-02-13T12:26:18;8.90;99.90
52044;DHT22;38053;53.100;6.078;2023-02-13T12:44:32;9.20;99.90
52044;DHT22;38053;53.100;6.078;2023-02-13T12:58:01;9.40;99.90
52044;DHT22;38053;53.100;6.078;2023-02-13T13:15:19;9.60;99.90
52044;DHT22;38053;53.100;6.078;2023-02-13T13:22:48;9.50;99.90
52044;DHT22;38053;53.100;6.078;2023-02-13T13:27:49;9.50;99.90
52044;DHT22;38053;53.100;6.078;2023-02-13T13:30:32;9.50;99.90
52044;DHT22;38053;53.100;6.078;2023-02-13T13:33:03;9.50;99.90
52044;DHT22;38053;53.100;6.078;2023-02-13T13:35:35;9.50;99.90
52044;DHT22;38053;53.100;6.078;2023-02-13T13:38:28;9.60;99.90
52044;DHT22;38053;53.100;6.078;2023-02-13T13:41:04;9.60;99.90
52044;DHT22;38053;53.100;6.078;2023-02-13T13:43:53;9.70;99.90
52044;DHT22;38053;53.100;6.078;2023-02-13T13:49:57;9.70;99.90
52044;DHT22;38053;53.100;6.078;2023-02-13T13:52:35;9.70;99.90
52044;DHT22;38053;53.100;6.078;2023-02-13T13:55:04;9.70;99.90
52044;DHT22;38053;53.100;6.078;2023-02-13T13:57:58;9.60;99.90
52044;DHT22;38053;53.100;6.078;2023-02-13T14:00:27;9.50;99.90
52044;DHT22;38053;53.100;6.078;2023-02-13T14:03:20;9.50;99.90
52044;DHT22;38053;53.100;6.078;2023-02-13T14:06:08;9.40;99.90
52044;DHT22;38053;53.100;6.078;2023-02-13T14:13:53;9.50;99.90
52044;DHT22;38053;53.100;6.078;2023-02-13T14:24:51;9.60;99.90
52044;DHT22;38053;53.100;6.078;2023-02-13T14:27:35;9.50;99.90
52044;DHT22;38053;53.100;6.078;2023-02-13T14:30:04;9.50;99.90
52044;DHT22;38053;53.100;6.078;2023-02-13T14:32:34;9.50;99.90
52044;DHT22;38053;53.100;6.078;2023-02-13T14:35:23;9.50;99.90
52044;DHT22;38053;53.100;6.078;2023-02-13T14:37:55;9.50;99.90
52044;DHT22;38053;53.100;6.078;2023-02-13T14:40:32;9.50;99.90
52044;DHT22;38053;53.100;6.078;2023-02-13T14:45:54;9.50;99.90
52044;DHT22;38053;53.100;6.078;2023-02-13T14:48:31;9.40;99.90
52044;DHT22;38053;53.100;6.078;2023-02-13T14:50:58;9.40;99.90
52044;DHT22;38053;53.100;6.078;2023-02-13T14:53:29;9.30;99.90
52044;DHT22;38053;53.100;6.078;2023-02-13T14:56:05;9.40;99.90
52044;DHT22;38053;53.100;6.078;2023-02-13T14:58:34;9.40;99.90
52044;DHT22;38053;53.100;6.078;2023-02-13T15:01:19;9.40;99.90
52044;DHT22;38053;53.100;6.078;2023-02-13T15:03:53;9.40;99.90
52044;DHT22;38053;53.100;6.078;2023-02-13T15:06:21;9.40;99.90
52044;DHT22;38053;53.100;6.078;2023-02-13T15:08:50;9.40;99.90
52044;DHT22;38053;53.100;6.078;2023-02-13T15:11:38;9.50;99.90
52044;DHT22;38053;53.100;6.078;2023-02-13T15:17:14;9.40;99.90
52044;DHT22;38053;53.100;6.078;2023-02-13T15:19:48;9.40;99.90
52044;DHT22;38053;53.100;6.078;2023-02-13T15:22:19;9.40;99.90
52044;DHT22;38053;53.100;6.078;2023-02-13T15:24:49;9.50;99.90
52044;DHT22;38053;53.100;6.078;2023-02-13T15:27:24;9.40;99.90
52044;DHT22;38053;53.100;6.078;2023-02-13T15:29:55;9.40;99.90
52044;DHT22;38053;53.100;6.078;2023-02-13T15:32:30;9.40;99.90
52044;DHT22;38053;53.100;6.078;2023-02-13T15:34:56;9.40;99.90
52044;DHT22;38053;53.100;6.078;2023-02-13T15:37:26;9.40;99.90
52044;DHT22;38053;53.100;6.078;2023-02-13T15:39:52;9.30;99.90
52044;DHT22;38053;53.100;6.078;2023-02-13T15:42:18;9.30;99.90
52044;DHT22;38053;53.100;6.078;2023-02-13T15:44:49;9.20;99.90
52044;DHT22;38053;53.100;6.078;2023-02-13T15:47:21;9.20;99.90
52044;DHT22;38053;53.100;6.078;2023-02-13T15:49:48;9.10;99.90
52044;DHT22;38053;53.100;6.078;2023-02-13T15:52:21;9.10;99.90
52044;DHT22;38053;53.100;6.078;2023-02-13T15:54:50;9.10;99.90
52044;DHT22;38053;53.100;6.078;2023-02-13T15:57:16;9.10;99.90
52044;DHT22;38053;53.100;6.078;2023-02-13T15:59:44;9.00;99.90
52044;DHT22;38053;53.100;6.078;2023-02-13T16:02:15;9.00;99.90
52044;DHT22;38053;53.100;6.078;2023-02-13T16:04:42;8.90;99.90
52044;DHT22;38053;53.100;6.078;2023-02-13T16:07:13;8.90;99.90
52044;DHT22;38053;53.100;6.078;2023-02-13T16:09:48;8.90;99.90
52044;DHT22;38053;53.100;6.078;2023-02-13T16:12:26;8.80;99.90
52044;DHT22;38053;53.100;6.078;2023-02-13T16:15:00;8.70;99.90
52044;DHT22;38053;53.100;6.078;2023-02-13T16:17:37;8.70;99.90
52044;DHT22;38053;53.100;6.078;2023-02-13T16:20:17;8.60;99.90
52044;DHT22;38053;53.100;6.078;2023-02-13T16:22:49;8.40;99.90
52044;DHT22;38053;53.100;6.078;2023-02-13T16:27:55;8.20;99.90
52044;DHT22;38053;53.100;6.078;2023-02-13T16:30:33;8.20;99.90
52044;DHT22;38053;53.100;6.078;2023-02-13T16:35:42;7.90;99.90
52044;DHT22;38053;53.100;6.078;2023-02-13T16:38:38;7.80;99.90
52044;DHT22;38053;53.100;6.078;2023-02-13T16:46:36;7.50;99.90
52044;DHT22;38053;53.100;6.078;2023-02-13T16:51:46;7.20;99.90
52044;DHT22;38053;53.100;6.078;2023-02-13T16:54:51;7.10;99.90
52044;DHT22;38053;53.100;6.078;2023-02-13T16:57:21;7.00;99.90
52044;DHT22;38053;53.100;6.078;2023-02-13T17:00:05;6.80;99.90
52044;DHT22;38053;53.100;6.078;2023-02-13T17:02:35;6.70;99.90
52044;DHT22;38053;53.100;6.078;2023-02-13T17:10:20;6.40;99.90
52044;DHT22;38053;53.100;6.078;2023-02-13T17:12:47;6.30;99.90
52044;DHT22;38053;53.100;6.078;2023-02-13T17:15:17;6.30;99.90
52044;DHT22;38053;53.100;6.078;2023-02-13T17:17:45;6.20;99.90
52044;DHT22;38053;53.100;6.078;2023-02-13T17:20:17;6.10;99.90
52044;DHT22;38053;53.100;6.078;2023-02-13T17:22:45;6.10;99.90
52044;DHT22;38053;53.100;6.078;2023-02-13T17:25:21;6.00;99.90
52044;DHT22;38053;53.100;6.078;2023-02-13T17:27:52;5.90;99.90
52044;DHT22;38053;53.100;6.078;2023-02-13T17:30:23;5.90;99.90
52044;DHT22;38053;53.100;6.078;2023-02-13T17:32:54;5.70;99.90
52044;DHT22;38053;53.100;6.078;2023-02-13T17:35:21;5.60;99.90
52044;DHT22;38053;53.100;6.078;2023-02-13T17:37:47;5.60;99.90
52044;DHT22;38053;53.100;6.078;2023-02-13T17:40:17;5.50;99.90
52044;DHT22;38053;53.100;6.078;2023-02-13T17:42:53;5.40;99.90
52044;DHT22;38053;53.100;6.078;2023-02-13T17:45:21;5.40;99.90
52044;DHT22;38053;53.100;6.078;2023-02-13T17:47:46;5.30;99.90
52044;DHT22;38053;53.100;6.078;2023-02-13T17:50:13;5.30;99.90
52044;DHT22;38053;53.100;6.078;2023-02-13T17:52:40;5.30;99.90
52044;DHT22;38053;53.100;6.078;2023-02-13T17:57:40;5.10;99.90
52044;DHT22;38053;53.100;6.078;2023-02-13T18:00:08;5.10;99.90
52044;DHT22;38053;53.100;6.078;2023-02-13T18:02:35;5.10;99.90
52044;DHT22;38053;53.100;6.078;2023-02-13T18:05:02;5.00;99.90
52044;DHT22;38053;53.100;6.078;2023-02-13T18:07:28;5.00;99.90
52044;DHT22;38053;53.100;6.078;2023-02-13T18:09:53;5.00;99.90
52044;DHT22;38053;53.100;6.078;2023-02-13T18:12:22;4.90;99.90
52044;DHT22;38053;53.100;6.078;2023-02-13T18:14:49;4.90;99.90
52044;DHT22;38053;53.100;6.078;2023-02-13T18:17:16;4.80;99.90
52044;DHT22;38053;53.100;6.078;2023-02-13T18:19:42;4.80;99.90
52044;DHT22;38053;53.100;6.078;2023-02-13T18:22:09;4.80;99.90
52044;DHT22;38053;53.100;6.078;2023-02-13T18:24:40;4.80;99.90
52044;DHT22;38053;53.100;6.078;2023-02-13T18:27:08;4.80;99.90
52044;DHT22;38053;53.100;6.078;2023-02-13T18:29:35;4.70;99.90
52044;DHT22;38053;53.100;6.078;2023-02-13T18:32:04;4.70;99.90
52044;DHT22;38053;53.100;6.078;2023-02-13T18:34:30;4.70;99.90
52044;DHT22;38053;53.100;6.078;2023-02-13T18:36:56;4.60;99.90
52044;DHT22;38053;53.100;6.078;2023-02-13T18:39:21;4.60;99.90
52044;DHT22;38053;53.100;6.078;2023-02-13T18:41:47;4.60;99.90
52044;DHT22;38053;53.100;6.078;2023-02-13T18:44:13;4.50;99.90